sensor_id;sensor_type;location;lat;lon;timestamp;temperature;humidity
28548;DHT22;68292;49.600;8.746;2023-04-01T00:01:04;17.90;51.80
28548;DHT22;68292;49.600;8.746;2023-04-01T00:03:34;17.90;51.90
28548;DHT22;68292;49.600;8.746;2023-04-01T00:06:03;17.90;51.90
28548;DHT22;68292;49.600;8.746;2023-04-01T00:08:32;17.90;51.80
28548;DHT22;68292;49.600;8.746;2023-04-01T00:11:02;17.90;51.80
28548;DHT22;68292;49.600;8.746;2023-04-01T00:13:31;17.90;51.80
28548;DHT22;68292;49.600;8.746;2023-04-01T00:16:00;17.90;51.80
28548;DHT22;68292;49.600;8.746;2023-04-01T00:18:35;17.90;51.80
28548;DHT22;68292;49.600;8.746;2023-04-01T00:21:05;17.90;51.80
28548;DHT22;68292;49.600;8.746;2023-04-01T00:23:34;17.90;51.80
28548;DHT22;68292;49.600;8.746;2023-04-01T00:26:04;17.90;51.80
28548;DHT22;68292;49.600;8.746;2023-04-01T00:28:34;17.90;51.90
28548;DHT22;68292;49.600;8.746;2023-04-01T00:31:07;17.90;51.80
28548;DHT22;68292;49.600;8.746;2023-04-01T00:33:40;17.90;51.80
28548;DHT22;68292;49.600;8.746;2023-04-01T00:36:10;17.90;51.80
28548;DHT22;68292;49.600;8.746;2023-04-01T00:38:40;17.90;51.80
28548;DHT22;68292;49.600;8.746;2023-04-01T00:41:12;17.90;51.80
28548;DHT22;68292;49.600;8.746;2023-04-01T00:43:43;17.90;51.80
28548;DHT22;68292;49.600;8.746;2023-04-01T00:46:16;17.90;51.90
28548;DHT22;68292;49.600;8.746;2023-04-01T00:48:48;17.90;51.80
28548;DHT22;68292;49.600;8.746;2023-04-01T00:51:21;17.90;51.70
28548;DHT22;68292;49.600;8.746;2023-04-01T00:53:54;17.90;51.80
28548;DHT22;68292;49.600;8.746;2023-04-01T00:56:30;17.90;51.70
28548;DHT22;68292;49.600;8.746;2023-04-01T00:59:04;17.90;51.60
28548;DHT22;68292;49.600;8.746;2023-04-01T01:01:36;17.90;51.60
28548;DHT22;68292;49.600;8.746;2023-04-01T01:04:05;17.90;51.70
28548;DHT22;68292;49.600;8.746;2023-04-01T01:06:42;17.90;51.60
28548;DHT22;68292;49.600;8.746;2023-04-01T01:09:28;17.90;51.50
28548;DHT22;68292;49.600;8.746;2023-04-01T01:12:07;17.90;51.50
28548;DHT22;68292;49.600;8.746;2023-04-01T01:14:50;17.90;51.50
28548;DHT22;68292;49.600;8.746;2023-04-01T01:17:31;17.90;51.50
28548;DHT22;68292;49.600;8.746;2023-04-01T01:23:53;17.80;51.60
28548;DHT22;68292;49.600;8.746;2023-04-01T01:26:52;17.90;51.50
28548;DHT22;68292;49.600;8.746;2023-04-01T01:29:50;17.90;51.40
28548;DHT22;68292;49.600;8.746;2023-04-01T01:32:42;17.90;51.40
28548;DHT22;68292;49.600;8.746;2023-04-01T01:35:42;17.90;51.30
28548;DHT22;68292;49.600;8.746;2023-04-01T01:38:19;17.90;51.30
28548;DHT22;68292;49.600;8.746;2023-04-01T01:41:02;17.80;51.30
28548;DHT22;68292;49.600;8.746;2023-04-01T01:43:36;17.80;51.30
28548;DHT22;68292;49.600;8.746;2023-04-01T01:46:09;17.80;51.30
28548;DHT22;68292;49.600;8.746;2023-04-01T01:48:42;17.80;51.30
28548;DHT22;68292;49.600;8.746;2023-04-01T01:51:12;17.80;51.30
28548;DHT22;68292;49.600;8.746;2023-04-01T01:53:43;17.80;51.30
28548;DHT22;68292;49.600;8.746;2023-04-01T01:56:13;17.80;51.30
28548;DHT22;68292;49.600;8.746;2023-04-01T01:58:47;17.80;51.30
28548;DHT22;68292;49.600;8.746;2023-04-01T02:01:21;17.80;51.20
28548;DHT22;68292;49.600;8.746;2023-04-01T02:03:52;17.80;51.20
28548;DHT22;68292;49.600;8.746;2023-04-01T02:06:25;17.80;51.20
28548;DHT22;68292;49.600;8.746;2023-04-01T02:08:57;17.80;51.10
28548;DHT22;68292;49.600;8.746;2023-04-01T02:11:30;17.80;51.10
28548;DHT22;68292;49.600;8.746;2023-04-01T02:14:05;17.80;51.10
28548;DHT22;68292;49.600;8.746;2023-04-01T02:16:38;17.80;51.10
28548;DHT22;68292;49.600;8.746;2023-04-01T02:19:12;17.80;51.10
28548;DHT22;68292;49.600;8.746;2023-04-01T02:21:43;17.80;51.10
28548;DHT22;68292;49.600;8.746;2023-04-01T02:24:14;17.80;51.10
28548;DHT22;68292;49.600;8.746;2023-04-01T02:26:44;17.80;51.00
28548;DHT22;68292;49.600;8.746;2023-04-01T02:29:14;17.80;51.00
28548;DHT22;68292;49.600;8.746;2023-04-01T02:31:43;17.80;51.10
28548;DHT22;68292;49.600;8.746;2023-04-01T02:34:13;17.80;51.10
28548;DHT22;68292;49.600;8.746;2023-04-01T02:36:44;17.80;51.00
28548;DHT22;68292;49.600;8.746;2023-04-01T02:39:13;17.80;51.00
28548;DHT22;68292;49.600;8.746;2023-04-01T02:41:43;17.80;51.00
28548;DHT22;68292;49.600;8.746;2023-04-01T02:44:14;17.80;51.10
28548;DHT22;68292;49.600;8.746;2023-04-01T02:46:43;17.80;51.00
28548;DHT22;68292;49.600;8.746;2023-04-01T02:49:12;17.80;51.00
28548;DHT22;68292;49.600;8.746;2023-04-01T02:51:42;17.80;51.00
28548;DHT22;68292;49.600;8.746;2023-04-01T02:54:11;17.80;51.00
28548;DHT22;68292;49.600;8.746;2023-04-01T02:56:40;17.80;51.00
28548;DHT22;68292;49.600;8.746;2023-04-01T02:59:09;17.80;51.00
28548;DHT22;68292;49.600;8.746;2023-04-01T03:01:38;17.80;51.00
28548;DHT22;68292;49.600;8.746;2023-04-01T03:04:07;17.80;51.00
28548;DHT22;68292;49.600;8.746;2023-04-01T03:06:35;17.80;51.00
28548;DHT22;68292;49.600;8.746;2023-04-01T03:09:05;17.80;51.00
28548;DHT22;68292;49.600;8.746;2023-04-01T03:11:34;17.80;51.00
28548;DHT22;68292;49.600;8.746;2023-04-01T03:14:03;17.80;51.00
28548;DHT22;68292;49.600;8.746;2023-04-01T03:16:32;17.80;51.00
28548;DHT22;68292;49.600;8.746;2023-04-01T03:19:01;17.80;51.00
28548;DHT22;68292;49.600;8.746;2023-04-01T03:21:29;17.80;50.90
28548;DHT22;68292;49.600;8.746;2023-04-01T03:23:58;17.80;50.90
28548;DHT22;68292;49.600;8.746;2023-04-01T03:26:29;17.80;51.00
28548;DHT22;68292;49.600;8.746;2023-04-01T03:28:59;17.80;50.90
28548;DHT22;68292;49.600;8.746;2023-04-01T03:31:27;17.80;50.90
28548;DHT22;68292;49.600;8.746;2023-04-01T03:33:57;17.80;51.00
28548;DHT22;68292;49.600;8.746;2023-04-01T03:36:27;17.70;50.90
28548;DHT22;68292;49.600;8.746;2023-04-01T03:38:55;17.70;50.90
28548;DHT22;68292;49.600;8.746;2023-04-01T03:41:35;17.80;50.90
28548;DHT22;68292;49.600;8.746;2023-04-01T03:44:05;17.80;50.90
28548;DHT22;68292;49.600;8.746;2023-04-01T03:46:34;17.70;50.90
28548;DHT22;68292;49.600;8.746;2023-04-01T03:49:06;17.70;50.90
28548;DHT22;68292;49.600;8.746;2023-04-01T03:51:39;17.70;50.90
28548;DHT22;68292;49.600;8.746;2023-04-01T03:54:09;17.70;51.00
28548;DHT22;68292;49.600;8.746;2023-04-01T03:56:40;17.70;51.00
28548;DHT22;68292;49.600;8.746;2023-04-01T03:59:12;17.70;51.00
28548;DHT22;68292;49.600;8.746;2023-04-01T04:01:41;17.70;51.00
28548;DHT22;68292;49.600;8.746;2023-04-01T04:04:11;17.70;51.00
28548;DHT22;68292;49.600;8.746;2023-04-01T04:06:41;17.70;51.00
28548;DHT22;68292;49.600;8.746;2023-04-01T04:09:10;17.70;51.00
28548;DHT22;68292;49.600;8.746;2023-04-01T04:11:41;17.70;51.00
28548;DHT22;68292;49.600;8.746;2023-04-01T04:14:09;17.70;51.00
28548;DHT22;68292;49.600;8.746;2023-04-01T04:16:38;17.70;51.00
28548;DHT22;68292;49.600;8.746;2023-04-01T04:19:07;17.70;51.00
28548;DHT22;68292;49.600;8.746;2023-04-01T04:21:36;17.70;51.00
28548;DHT22;68292;49.600;8.746;2023-04-01T04:24:06;17.60;51.00
28548;DHT22;68292;49.600;8.746;2023-04-01T04:26:56;17.70;51.00
28548;DHT22;68292;49.600;8.746;2023-04-01T04:29:24;17.70;51.00
28548;DHT22;68292;49.600;8.746;2023-04-01T04:31:53;17.70;51.00
28548;DHT22;68292;49.600;8.746;2023-04-01T04:34:22;17.70;51.00
28548;DHT22;68292;49.600;8.746;2023-04-01T04:36:51;17.70;50.90
28548;DHT22;68292;49.600;8.746;2023-04-01T04:39:21;17.70;50.90
28548;DHT22;68292;49.600;8.746;2023-04-01T04:41:50;17.70;50.90
28548;DHT22;68292;49.600;8.746;2023-04-01T04:44:21;17.70;50.90
28548;DHT22;68292;49.600;8.746;2023-04-01T04:46:49;17.70;50.90
28548;DHT22;68292;49.600;8.746;2023-04-01T04:49:18;17.70;50.90
28548;DHT22;68292;49.600;8.746;2023-04-01T04:51:47;17.70;50.90
28548;DHT22;68292;49.600;8.746;2023-04-01T04:54:17;17.70;50.90
28548;DHT22;68292;49.600;8.746;2023-04-01T04:56:53;17.70;50.90
28548;DHT22;68292;49.600;8.746;2023-04-01T04:59:26;17.70;50.90
28548;DHT22;68292;49.600;8.746;2023-04-01T05:02:00;17.70;50.90
28548;DHT22;68292;49.600;8.746;2023-04-01T05:04:30;17.70;50.90
28548;DHT22;68292;49.600;8.746;2023-04-01T05:07:04;17.70;50.90
28548;DHT22;68292;49.600;8.746;2023-04-01T05:09:33;17.70;50.90
28548;DHT22;68292;49.600;8.746;2023-04-01T05:12:03;17.70;50.90
28548;DHT22;68292;49.600;8.746;2023-04-01T05:14:58;17.70;50.80
28548;DHT22;68292;49.600;8.746;2023-04-01T05:17:27;17.70;50.80
28548;DHT22;68292;49.600;8.746;2023-04-01T05:19:57;17.70;50.90
28548;DHT22;68292;49.600;8.746;2023-04-01T05:22:26;17.70;50.90
28548;DHT22;68292;49.600;8.746;2023-04-01T05:24:55;17.70;51.00
28548;DHT22;68292;49.600;8.746;2023-04-01T05:27:24;17.70;51.00
28548;DHT22;68292;49.600;8.746;2023-04-01T05:29:53;17.70;51.00
28548;DHT22;68292;49.600;8.746;2023-04-01T05:32:44;17.70;51.00
28548;DHT22;68292;49.600;8.746;2023-04-01T05:35:12;17.70;50.90
28548;DHT22;68292;49.600;8.746;2023-04-01T05:37:41;17.70;51.00
28548;DHT22;68292;49.600;8.746;2023-04-01T05:40:10;17.70;51.00
28548;DHT22;68292;49.600;8.746;2023-04-01T05:42:39;17.70;51.00
28548;DHT22;68292;49.600;8.746;2023-04-01T05:45:09;17.70;51.70
28548;DHT22;68292;49.600;8.746;2023-04-01T05:48:03;17.70;51.10
28548;DHT22;68292;49.600;8.746;2023-04-01T05:50:37;17.70;51.10
28548;DHT22;68292;49.600;8.746;2023-04-01T05:53:09;17.60;51.10
28548;DHT22;68292;49.600;8.746;2023-04-01T05:55:41;17.60;51.10
28548;DHT22;68292;49.600;8.746;2023-04-01T05:58:10;17.60;51.10
28548;DHT22;68292;49.600;8.746;2023-04-01T06:00:42;17.60;51.10
28548;DHT22;68292;49.600;8.746;2023-04-01T06:03:16;17.60;51.20
28548;DHT22;68292;49.600;8.746;2023-04-01T06:05:45;17.60;51.20
28548;DHT22;68292;49.600;8.746;2023-04-01T06:08:16;17.60;51.30
28548;DHT22;68292;49.600;8.746;2023-04-01T06:11:01;17.60;51.30
28548;DHT22;68292;49.600;8.746;2023-04-01T06:13:54;17.60;51.40
28548;DHT22;68292;49.600;8.746;2023-04-01T06:16:43;17.60;51.40
28548;DHT22;68292;49.600;8.746;2023-04-01T06:19:31;17.60;51.40
28548;DHT22;68292;49.600;8.746;2023-04-01T06:22:27;17.60;51.40
28548;DHT22;68292;49.600;8.746;2023-04-01T06:25:47;17.60;51.40
28548;DHT22;68292;49.600;8.746;2023-04-01T06:28:48;17.60;51.60
28548;DHT22;68292;49.600;8.746;2023-04-01T06:31:38;17.60;51.60
28548;DHT22;68292;49.600;8.746;2023-04-01T06:34:45;17.60;51.50
28548;DHT22;68292;49.600;8.746;2023-04-01T06:37:31;17.60;51.60
28548;DHT22;68292;49.600;8.746;2023-04-01T06:40:25;17.60;51.50
28548;DHT22;68292;49.600;8.746;2023-04-01T06:43:15;17.60;51.60
28548;DHT22;68292;49.600;8.746;2023-04-01T06:46:14;17.60;51.60
28548;DHT22;68292;49.600;8.746;2023-04-01T06:49:17;17.60;51.50
28548;DHT22;68292;49.600;8.746;2023-04-01T06:52:20;17.60;51.60
28548;DHT22;68292;49.600;8.746;2023-04-01T06:55:23;17.60;51.50
28548;DHT22;68292;49.600;8.746;2023-04-01T06:58:20;17.60;51.50
28548;DHT22;68292;49.600;8.746;2023-04-01T07:00:52;17.50;51.40
28548;DHT22;68292;49.600;8.746;2023-04-01T07:03:29;17.60;51.50
28548;DHT22;68292;49.600;8.746;2023-04-01T07:06:03;17.60;51.50
28548;DHT22;68292;49.600;8.746;2023-04-01T07:08:42;17.50;51.50
28548;DHT22;68292;49.600;8.746;2023-04-01T07:11:17;17.60;51.60
28548;DHT22;68292;49.600;8.746;2023-04-01T07:14:16;17.60;51.70
28548;DHT22;68292;49.600;8.746;2023-04-01T07:16:51;17.60;51.60
28548;DHT22;68292;49.600;8.746;2023-04-01T07:19:24;17.50;51.60
28548;DHT22;68292;49.600;8.746;2023-04-01T07:22:09;17.50;51.60
28548;DHT22;68292;49.600;8.746;2023-04-01T07:25:15;17.50;51.70
28548;DHT22;68292;49.600;8.746;2023-04-01T07:28:02;17.50;51.80
28548;DHT22;68292;49.600;8.746;2023-04-01T07:30:47;17.50;51.90
28548;DHT22;68292;49.600;8.746;2023-04-01T07:33:24;17.50;51.90
28548;DHT22;68292;49.600;8.746;2023-04-01T07:36:03;17.50;51.90
28548;DHT22;68292;49.600;8.746;2023-04-01T07:38:42;17.50;52.60
28548;DHT22;68292;49.600;8.746;2023-04-01T07:41:41;17.50;52.00
28548;DHT22;68292;49.600;8.746;2023-04-01T07:44:24;17.50;52.10
28548;DHT22;68292;49.600;8.746;2023-04-01T07:47:20;17.50;52.20
28548;DHT22;68292;49.600;8.746;2023-04-01T07:50:06;17.50;52.30
28548;DHT22;68292;49.600;8.746;2023-04-01T07:52:47;17.50;52.30
28548;DHT22;68292;49.600;8.746;2023-04-01T07:55:26;17.50;52.30
28548;DHT22;68292;49.600;8.746;2023-04-01T07:58:06;17.50;52.20
28548;DHT22;68292;49.600;8.746;2023-04-01T08:00:48;17.50;52.40
28548;DHT22;68292;49.600;8.746;2023-04-01T08:03:38;17.50;52.40
28548;DHT22;68292;49.600;8.746;2023-04-01T08:06:20;17.50;52.50
28548;DHT22;68292;49.600;8.746;2023-04-01T08:09:00;17.60;52.50
28548;DHT22;68292;49.600;8.746;2023-04-01T08:12:04;17.50;52.80
28548;DHT22;68292;49.600;8.746;2023-04-01T08:15:10;17.60;52.90
28548;DHT22;68292;49.600;8.746;2023-04-01T08:17:52;17.50;52.80
28548;DHT22;68292;49.600;8.746;2023-04-01T08:20:32;17.60;52.90
28548;DHT22;68292;49.600;8.746;2023-04-01T08:23:07;17.60;52.90
28548;DHT22;68292;49.600;8.746;2023-04-01T08:25:47;17.60;52.90
28548;DHT22;68292;49.600;8.746;2023-04-01T08:28:24;17.60;52.90
28548;DHT22;68292;49.600;8.746;2023-04-01T08:31:05;17.60;53.00
28548;DHT22;68292;49.600;8.746;2023-04-01T08:33:43;17.60;53.00
28548;DHT22;68292;49.600;8.746;2023-04-01T08:36:15;17.50;52.90
28548;DHT22;68292;49.600;8.746;2023-04-01T08:38:59;17.50;53.10
28548;DHT22;68292;49.600;8.746;2023-04-01T08:42:04;17.50;53.10
28548;DHT22;68292;49.600;8.746;2023-04-01T08:45:23;17.50;53.30
28548;DHT22;68292;49.600;8.746;2023-04-01T08:48:38;17.60;53.30
28548;DHT22;68292;49.600;8.746;2023-04-01T08:54:48;17.60;53.40
28548;DHT22;68292;49.600;8.746;2023-04-01T09:05:22;17.50;53.50
28548;DHT22;68292;49.600;8.746;2023-04-01T09:08:36;17.50;53.60
28548;DHT22;68292;49.600;8.746;2023-04-01T09:11:23;17.50;53.50
28548;DHT22;68292;49.600;8.746;2023-04-01T09:14:40;17.50;53.60
28548;DHT22;68292;49.600;8.746;2023-04-01T09:17:54;17.50;53.80
28548;DHT22;68292;49.600;8.746;2023-04-01T09:20:52;17.50;53.80
28548;DHT22;68292;49.600;8.746;2023-04-01T09:23:47;17.50;53.80
28548;DHT22;68292;49.600;8.746;2023-04-01T09:27:03;17.50;53.80
28548;DHT22;68292;49.600;8.746;2023-04-01T09:30:10;17.50;53.90
28548;DHT22;68292;49.600;8.746;2023-04-01T09:36:45;17.50;53.90
28548;DHT22;68292;49.600;8.746;2023-04-01T09:39:35;17.50;53.90
28548;DHT22;68292;49.600;8.746;2023-04-01T09:42:16;17.50;54.00
28548;DHT22;68292;49.600;8.746;2023-04-01T09:45:37;17.50;54.00
28548;DHT22;68292;49.600;8.746;2023-04-01T09:48:36;17.50;54.30
28548;DHT22;68292;49.600;8.746;2023-04-01T09:51:28;17.50;54.30
28548;DHT22;68292;49.600;8.746;2023-04-01T09:54:19;17.50;54.00
28548;DHT22;68292;49.600;8.746;2023-04-01T10:00:24;17.50;54.40
28548;DHT22;68292;49.600;8.746;2023-04-01T10:03:43;17.50;54.40
28548;DHT22;68292;49.600;8.746;2023-04-01T10:06:51;17.50;54.50
28548;DHT22;68292;49.600;8.746;2023-04-01T10:10:00;17.50;54.60
28548;DHT22;68292;49.600;8.746;2023-04-01T10:19:49;17.50;54.70
28548;DHT22;68292;49.600;8.746;2023-04-01T10:22:49;17.50;54.70
28548;DHT22;68292;49.600;8.746;2023-04-01T10:36:12;17.60;55.00
28548;DHT22;68292;49.600;8.746;2023-04-01T10:39:17;17.60;55.00
28548;DHT22;68292;49.600;8.746;2023-04-01T10:49:35;17.60;54.90
28548;DHT22;68292;49.600;8.746;2023-04-01T10:56:18;17.60;55.10
28548;DHT22;68292;49.600;8.746;2023-04-01T10:59:36;17.60;55.10
28548;DHT22;68292;49.600;8.746;2023-04-01T11:07:08;17.60;55.20
28548;DHT22;68292;49.600;8.746;2023-04-01T11:13:50;17.60;55.30
28548;DHT22;68292;49.600;8.746;2023-04-01T11:20:13;17.60;55.50
28548;DHT22;68292;49.600;8.746;2023-04-01T11:26:49;17.60;55.60
28548;DHT22;68292;49.600;8.746;2023-04-01T11:29:45;17.60;55.30
28548;DHT22;68292;49.600;8.746;2023-04-01T11:32:53;17.60;55.50
28548;DHT22;68292;49.600;8.746;2023-04-01T11:35:38;17.60;55.70
28548;DHT22;68292;49.600;8.746;2023-04-01T11:38:24;17.60;55.70
28548;DHT22;68292;49.600;8.746;2023-04-01T11:41:25;17.60;56.30
28548;DHT22;68292;49.600;8.746;2023-04-01T11:44:19;17.60;55.60
28548;DHT22;68292;49.600;8.746;2023-04-01T11:47:15;17.60;55.60
28548;DHT22;68292;49.600;8.746;2023-04-01T11:50:04;17.60;55.70
28548;DHT22;68292;49.600;8.746;2023-04-01T11:52:58;17.60;55.80
28548;DHT22;68292;49.600;8.746;2023-04-01T11:55:41;17.60;55.80
28548;DHT22;68292;49.600;8.746;2023-04-01T11:58:47;17.60;55.90
28548;DHT22;68292;49.600;8.746;2023-04-01T12:01:44;17.60;56.10
28548;DHT22;68292;49.600;8.746;2023-04-01T12:04:45;17.60;56.00
28548;DHT22;68292;49.600;8.746;2023-04-01T12:07:40;17.60;56.00
28548;DHT22;68292;49.600;8.746;2023-04-01T12:10:18;17.60;55.80
28548;DHT22;68292;49.600;8.746;2023-04-01T12:12:54;17.60;55.80
28548;DHT22;68292;49.600;8.746;2023-04-01T12:15:42;17.60;55.90
28548;DHT22;68292;49.600;8.746;2023-04-01T12:18:23;17.60;56.10
28548;DHT22;68292;49.600;8.746;2023-04-01T12:20:59;17.70;55.80
28548;DHT22;68292;49.600;8.746;2023-04-01T12:23:51;17.60;55.80
28548;DHT22;68292;49.600;8.746;2023-04-01T12:26:47;17.60;56.10
28548;DHT22;68292;49.600;8.746;2023-04-01T12:32:49;17.70;56.20
28548;DHT22;68292;49.600;8.746;2023-04-01T12:35:27;17.70;55.90
28548;DHT22;68292;49.600;8.746;2023-04-01T12:38:10;17.70;56.00
28548;DHT22;68292;49.600;8.746;2023-04-01T12:41:01;17.70;56.10
28548;DHT22;68292;49.600;8.746;2023-04-01T12:47:06;17.70;56.10
28548;DHT22;68292;49.600;8.746;2023-04-01T12:50:09;17.70;56.00
28548;DHT22;68292;49.600;8.746;2023-04-01T12:52:59;17.70;56.10
28548;DHT22;68292;49.600;8.746;2023-04-01T12:55:40;17.70;56.10
28548;DHT22;68292;49.600;8.746;2023-04-01T12:58:48;17.70;55.80
28548;DHT22;68292;49.600;8.746;2023-04-01T13:05:12;17.70;56.20
28548;DHT22;68292;49.600;8.746;2023-04-01T13:08:01;17.70;56.10
28548;DHT22;68292;49.600;8.746;2023-04-01T13:10:44;17.70;56.10
28548;DHT22;68292;49.600;8.746;2023-04-01T13:13:37;17.70;56.10
28548;DHT22;68292;49.600;8.746;2023-04-01T13:16:25;17.70;56.10
28548;DHT22;68292;49.600;8.746;2023-04-01T13:19:00;17.70;56.00
28548;DHT22;68292;49.600;8.746;2023-04-01T13:21:41;17.70;56.10
28548;DHT22;68292;49.600;8.746;2023-04-01T13:24:28;17.70;56.20
28548;DHT22;68292;49.600;8.746;2023-04-01T13:27:06;17.70;56.20
28548;DHT22;68292;49.600;8.746;2023-04-01T13:29:40;17.70;56.10
28548;DHT22;68292;49.600;8.746;2023-04-01T13:32:23;17.70;56.00
28548;DHT22;68292;49.600;8.746;2023-04-01T13:35:24;17.70;56.20
28548;DHT22;68292;49.600;8.746;2023-04-01T13:38:12;17.70;56.30
28548;DHT22;68292;49.600;8.746;2023-04-01T13:41:06;17.70;56.20
28548;DHT22;68292;49.600;8.746;2023-04-01T13:43:43;17.70;56.20
28548;DHT22;68292;49.600;8.746;2023-04-01T13:46:32;17.70;56.10
28548;DHT22;68292;49.600;8.746;2023-04-01T13:55:43;17.70;56.40
28548;DHT22;68292;49.600;8.746;2023-04-01T13:58:55;17.80;56.30
28548;DHT22;68292;49.600;8.746;2023-04-01T14:01:36;17.70;56.50
28548;DHT22;68292;49.600;8.746;2023-04-01T14:04:39;17.70;56.30
28548;DHT22;68292;49.600;8.746;2023-04-01T14:07:29;17.70;56.50
28548;DHT22;68292;49.600;8.746;2023-04-01T14:10:10;17.70;56.30
28548;DHT22;68292;49.600;8.746;2023-04-01T14:12:56;17.80;56.30
28548;DHT22;68292;49.600;8.746;2023-04-01T14:18:57;17.70;56.40
28548;DHT22;68292;49.600;8.746;2023-04-01T14:21:38;17.80;56.50
28548;DHT22;68292;49.600;8.746;2023-04-01T14:24:23;17.80;56.40
28548;DHT22;68292;49.600;8.746;2023-04-01T14:30:20;17.80;56.50
28548;DHT22;68292;49.600;8.746;2023-04-01T14:33:05;17.80;56.50
28548;DHT22;68292;49.600;8.746;2023-04-01T14:35:44;17.80;56.40
28548;DHT22;68292;49.600;8.746;2023-04-01T14:38:34;17.80;56.30
28548;DHT22;68292;49.600;8.746;2023-04-01T14:41:17;17.80;56.40
28548;DHT22;68292;49.600;8.746;2023-04-01T14:44:18;17.80;56.40
28548;DHT22;68292;49.600;8.746;2023-04-01T14:47:15;17.80;56.40
28548;DHT22;68292;49.600;8.746;2023-04-01T14:49:53;17.80;56.50
28548;DHT22;68292;49.600;8.746;2023-04-01T14:52:33;17.80;56.10
28548;DHT22;68292;49.600;8.746;2023-04-01T14:55:20;17.80;56.20
28548;DHT22;68292;49.600;8.746;2023-04-01T14:58:15;17.80;56.40
28548;DHT22;68292;49.600;8.746;2023-04-01T15:00:54;17.80;56.30
28548;DHT22;68292;49.600;8.746;2023-04-01T15:03:45;17.80;56.20
28548;DHT22;68292;49.600;8.746;2023-04-01T15:06:35;17.80;56.20
28548;DHT22;68292;49.600;8.746;2023-04-01T15:09:26;17.80;56.30
28548;DHT22;68292;49.600;8.746;2023-04-01T15:12:11;17.80;56.10
28548;DHT22;68292;49.600;8.746;2023-04-01T15:18:02;17.80;56.30
28548;DHT22;68292;49.600;8.746;2023-04-01T15:20:47;17.80;56.20
28548;DHT22;68292;49.600;8.746;2023-04-01T15:23:37;17.80;56.10
28548;DHT22;68292;49.600;8.746;2023-04-01T15:26:28;17.80;56.30
28548;DHT22;68292;49.600;8.746;2023-04-01T15:29:14;17.80;56.30
28548;DHT22;68292;49.600;8.746;2023-04-01T15:31:58;17.80;56.30
28548;DHT22;68292;49.600;8.746;2023-04-01T15:34:35;17.80;56.20
28548;DHT22;68292;49.600;8.746;2023-04-01T15:37:16;17.80;56.20
28548;DHT22;68292;49.600;8.746;2023-04-01T15:39:55;17.80;56.20
28548;DHT22;68292;49.600;8.746;2023-04-01T15:42:35;17.80;56.20
28548;DHT22;68292;49.600;8.746;2023-04-01T15:45:22;17.80;56.30
28548;DHT22;68292;49.600;8.746;2023-04-01T15:48:11;17.80;56.40
28548;DHT22;68292;49.600;8.746;2023-04-01T15:57:08;17.80;56.20
28548;DHT22;68292;49.600;8.746;2023-04-01T15:59:56;17.80;56.30
28548;DHT22;68292;49.600;8.746;2023-04-01T16:02:45;17.80;56.20
28548;DHT22;68292;49.600;8.746;2023-04-01T16:05:31;17.80;56.10
28548;DHT22;68292;49.600;8.746;2023-04-01T16:08:16;17.80;56.20
28548;DHT22;68292;49.600;8.746;2023-04-01T16:11:04;17.80;56.20
28548;DHT22;68292;49.600;8.746;2023-04-01T16:13:51;17.80;56.20
28548;DHT22;68292;49.600;8.746;2023-04-01T16:16:35;17.80;56.20
28548;DHT22;68292;49.600;8.746;2023-04-01T16:19:25;17.80;56.20
28548;DHT22;68292;49.600;8.746;2023-04-01T16:22:04;17.80;56.50
28548;DHT22;68292;49.600;8.746;2023-04-01T16:24:41;17.80;56.20
28548;DHT22;68292;49.600;8.746;2023-04-01T16:27:16;17.80;56.30
28548;DHT22;68292;49.600;8.746;2023-04-01T16:29:51;17.80;56.30
28548;DHT22;68292;49.600;8.746;2023-04-01T16:32:37;17.80;56.20
28548;DHT22;68292;49.600;8.746;2023-04-01T16:35:29;17.80;56.40
28548;DHT22;68292;49.600;8.746;2023-04-01T16:38:07;17.80;56.40
28548;DHT22;68292;49.600;8.746;2023-04-01T16:40:49;17.80;56.20
28548;DHT22;68292;49.600;8.746;2023-04-01T16:43:28;17.80;56.30
28548;DHT22;68292;49.600;8.746;2023-04-01T16:46:32;17.80;56.20
28548;DHT22;68292;49.600;8.746;2023-04-01T16:49:27;17.80;56.30
28548;DHT22;68292;49.600;8.746;2023-04-01T16:52:15;17.80;56.20
28548;DHT22;68292;49.600;8.746;2023-04-01T16:54:50;17.80;56.10
28548;DHT22;68292;49.600;8.746;2023-04-01T16:57:27;17.80;56.10
28548;DHT22;68292;49.600;8.746;2023-04-01T17:00:03;17.80;56.10
28548;DHT22;68292;49.600;8.746;2023-04-01T17:02:49;17.80;56.10
28548;DHT22;68292;49.600;8.746;2023-04-01T17:05:38;17.80;56.10
28548;DHT22;68292;49.600;8.746;2023-04-01T17:08:19;17.80;56.10
28548;DHT22;68292;49.600;8.746;2023-04-01T17:10:57;17.80;56.00
28548;DHT22;68292;49.600;8.746;2023-04-01T17:13:43;17.80;55.90
28548;DHT22;68292;49.600;8.746;2023-04-01T17:20:00;17.80;56.10
28548;DHT22;68292;49.600;8.746;2023-04-01T17:22:39;17.80;55.90
28548;DHT22;68292;49.600;8.746;2023-04-01T17:25:25;17.80;55.80
28548;DHT22;68292;49.600;8.746;2023-04-01T17:28:08;17.80;55.90
28548;DHT22;68292;49.600;8.746;2023-04-01T17:30:46;17.80;55.80
28548;DHT22;68292;49.600;8.746;2023-04-01T17:33:51;17.80;55.80
28548;DHT22;68292;49.600;8.746;2023-04-01T17:36:36;17.80;55.90
28548;DHT22;68292;49.600;8.746;2023-04-01T17:39:33;17.80;55.70
28548;DHT22;68292;49.600;8.746;2023-04-01T17:42:13;17.80;56.50
28548;DHT22;68292;49.600;8.746;2023-04-01T17:44:52;17.80;55.60
28548;DHT22;68292;49.600;8.746;2023-04-01T17:47:35;17.80;55.60
28548;DHT22;68292;49.600;8.746;2023-04-01T17:50:22;17.80;55.60
28548;DHT22;68292;49.600;8.746;2023-04-01T17:53:02;17.80;55.80
28548;DHT22;68292;49.600;8.746;2023-04-01T17:55:58;17.80;55.80
28548;DHT22;68292;49.600;8.746;2023-04-01T17:58:42;17.80;55.70
28548;DHT22;68292;49.600;8.746;2023-04-01T18:01:26;17.80;55.60
28548;DHT22;68292;49.600;8.746;2023-04-01T18:04:10;17.80;55.80
28548;DHT22;68292;49.600;8.746;2023-04-01T18:07:10;17.80;55.60
28548;DHT22;68292;49.600;8.746;2023-04-01T18:09:56;17.80;55.70
28548;DHT22;68292;49.600;8.746;2023-04-01T18:12:38;17.80;55.60
28548;DHT22;68292;49.600;8.746;2023-04-01T18:15:32;17.80;55.70
28548;DHT22;68292;49.600;8.746;2023-04-01T18:18:17;17.80;55.70
28548;DHT22;68292;49.600;8.746;2023-04-01T18:21:00;17.80;55.70
28548;DHT22;68292;49.600;8.746;2023-04-01T18:23:41;17.80;55.70
28548;DHT22;68292;49.600;8.746;2023-04-01T18:26:24;17.80;55.70
28548;DHT22;68292;49.600;8.746;2023-04-01T18:28:59;17.80;55.60
28548;DHT22;68292;49.600;8.746;2023-04-01T18:31:35;17.80;55.60
28548;DHT22;68292;49.600;8.746;2023-04-01T18:34:08;17.80;55.60
28548;DHT22;68292;49.600;8.746;2023-04-01T18:36:46;17.80;55.60
28548;DHT22;68292;49.600;8.746;2023-04-01T18:39:30;17.80;55.60
28548;DHT22;68292;49.600;8.746;2023-04-01T18:42:07;17.80;55.60
28548;DHT22;68292;49.600;8.746;2023-04-01T18:44:46;17.80;55.50
28548;DHT22;68292;49.600;8.746;2023-04-01T18:47:25;17.80;55.50